Time;durP1;ratioP1;P1;durP2;ratioP2;P2;SDS_P1;SDS_P2;PMS_P1;PMS_P2;Temp;Humidity;BMP_temperature;BMP_pressure;BME280_temperature;BME280_humidity;BME280_pressure;Samples;Min_cycle;Max_cycle;Signal;HPM_P1;HPM_P2
2022/03/26 00:00:18;;;;;;;80.88;38.88;;;;;;;3.37;100.00;100766.13;4870073;29;20113;-79
2022/03/26 00:03:10;;;;;;;86.30;38.70;;;;;;;3.27;100.00;100765.94;4870686;29;20185;-79
2022/03/26 00:05:54;;;;;;;79.50;39.03;;;;;;;3.22;100.00;100762.41;4883718;29;20041;-79
2022/03/26 00:08:38;;;;;;;88.03;41.00;;;;;;;3.22;100.00;100774.47;4883840;29;20053;-79
2022/03/26 00:11:23;;;;;;;85.32;41.67;;;;;;;3.27;100.00;100765.06;4883725;29;20104;-79
2022/03/26 00:14:07;;;;;;;81.55;38.78;;;;;;;3.26;100.00;100759.00;4869797;29;20045;-79
2022/03/26 00:16:53;;;;;;;78.47;38.95;;;;;;;3.17;100.00;100745.00;4883546;29;20041;-79
2022/03/26 00:19:37;;;;;;;80.63;38.85;;;;;;;3.22;100.00;100749.44;4883662;29;20048;-79
2022/03/26 00:22:22;;;;;;;76.40;36.78;;;;;;;3.22;100.00;100752.03;4883419;29;20045;-79
2022/03/26 00:25:07;;;;;;;68.95;35.20;;;;;;;3.20;100.00;100747.66;4869524;29;20045;-79
2022/03/26 00:27:52;;;;;;;72.55;37.22;;;;;;;3.16;100.00;100746.72;4883363;29;20052;-79
2022/03/26 00:30:36;;;;;;;69.07;35.70;;;;;;;3.10;100.00;100740.56;4883406;29;20060;-79
2022/03/26 00:33:21;;;;;;;72.85;37.35;;;;;;;3.12;100.00;100742.34;4856510;29;20052;-79
2022/03/26 00:36:06;;;;;;;80.63;38.05;;;;;;;3.00;100.00;100742.97;4883232;29;20053;-78
2022/03/26 00:38:50;;;;;;;91.47;42.80;;;;;;;2.92;100.00;100734.16;4882419;29;20048;-79
2022/03/26 00:41:34;;;;;;;86.75;42.28;;;;;;;2.96;100.00;100735.13;4869208;29;20041;-79
2022/03/26 00:44:20;;;;;;;92.53;43.15;;;;;;;2.96;100.00;100738.56;4882190;29;20097;-79
2022/03/26 00:47:05;;;;;;;89.07;42.08;;;;;;;2.92;100.00;100735.88;4883018;29;20045;-79
2022/03/26 00:49:51;;;;;;;90.20;43.83;;;;;;;2.87;100.00;100729.75;4882977;29;20049;-78
2022/03/26 00:52:35;;;;;;;95.57;43.22;;;;;;;2.77;100.00;100726.09;4856175;29;20072;-79
2022/03/26 00:55:20;;;;;;;88.72;39.83;;;;;;;2.77;100.00;100724.38;4882935;29;20055;-79
2022/03/26 00:58:05;;;;;;;77.25;38.95;;;;;;;2.78;100.00;100723.53;4869118;29;20065;-79
2022/03/26 01:00:50;;;;;;;86.28;39.67;;;;;;;2.72;100.00;100710.44;4882799;29;20056;-79
2022/03/26 01:03:34;;;;;;;83.13;38.30;;;;;;;2.70;100.00;100719.03;4866243;29;20053;-78
2022/03/26 01:06:19;;;;;;;77.32;38.45;;;;;;;2.64;100.00;100712.03;4875302;29;20097;-79
2022/03/26 01:09:03;;;;;;;74.03;35.63;;;;;;;2.58;100.00;100710.16;4881876;29;20351;-79
2022/03/26 01:11:48;;;;;;;76.07;37.80;;;;;;;2.49;100.00;100699.63;4868790;29;20124;-79
2022/03/26 01:14:32;;;;;;;77.45;38.53;;;;;;;2.43;100.00;100702.06;4881881;29;20049;-79
2022/03/26 01:17:17;;;;;;;80.88;41.17;;;;;;;2.37;100.00;100704.50;4868811;29;20045;-78
2022/03/26 01:20:02;;;;;;;93.80;44.15;;;;;;;2.37;100.00;100707.09;4882475;29;20439;-79
2022/03/26 01:22:47;;;;;;;82.32;41.28;;;;;;;2.40;100.00;100708.88;4868580;29;20053;-79
2022/03/26 01:25:31;;;;;;;85.55;40.03;;;;;;;2.37;100.00;100701.91;4882366;29;20045;-79
2022/03/26 01:28:16;;;;;;;83.63;39.63;;;;;;;2.35;100.00;100690.69;4868560;29;20049;-79
2022/03/26 01:31:00;;;;;;;84.22;41.17;;;;;;;2.31;100.00;100692.34;4868506;29;20049;-79
2022/03/26 01:33:47;;;;;;;85.70;42.05;;;;;;;2.31;100.00;100701.81;4882220;29;20045;-79
2022/03/26 01:36:31;;;;;;;78.20;39.17;;;;;;;2.34;100.00;100692.41;4882430;29;20063;-79
2022/03/26 01:39:17;;;;;;;87.78;41.85;;;;;;;2.32;100.00;100686.31;4882401;29;20454;-78
2022/03/26 01:42:04;;;;;;;82.00;40.15;;;;;;;2.31;100.00;100686.31;4868278;29;20056;-79
2022/03/26 01:44:49;;;;;;;87.45;45.38;;;;;;;2.31;100.00;100688.88;4868206;29;20061;-79
2022/03/26 01:47:34;;;;;;;87.10;42.08;;;;;;;2.30;100.00;100689.69;4868365;29;20048;-78
2022/03/26 01:50:18;;;;;;;95.40;44.20;;;;;;;2.28;100.00;100694.00;4868591;29;20053;-79
2022/03/26 01:53:03;;;;;;;88.10;42.45;;;;;;;2.27;100.00;100693.09;4881290;29;20132;-78
2022/03/26 01:55:48;;;;;;;82.97;40.95;;;;;;;2.28;100.00;100689.69;4868240;29;20045;-79
2022/03/26 01:58:33;;;;;;;81.75;41.03;;;;;;;2.19;100.00;100694.63;4882004;29;20065;-78
2022/03/26 02:01:18;;;;;;;94.40;43.65;;;;;;;2.18;100.00;100686.84;4882061;29;20056;-79
2022/03/26 02:04:03;;;;;;;89.28;42.70;;;;;;;2.19;100.00;100694.63;4868131;29;20045;-78
2022/03/26 02:06:48;;;;;;;86.97;40.58;;;;;;;2.20;100.00;100690.34;4881186;29;20045;-79
2022/03/26 02:09:35;;;;;;;87.75;41.22;;;;;;;2.17;100.00;100687.69;4882001;29;20049;-79
2022/03/26 02:12:28;;;;;;;83.60;39.58;;;;;;;2.17;100.00;100690.28;4868332;29;20052;-78
2022/03/26 02:15:14;;;;;;;90.25;39.58;;;;;;;2.09;100.00;100669.44;4883791;29;20036;-78
2022/03/26 02:17:58;;;;;;;89.40;41.83;;;;;;;2.09;100.00;100683.22;4871754;29;20084;-78
2022/03/26 02:20:43;;;;;;;84.68;41.63;;;;;;;2.00;100.00;100682.13;4858740;29;20045;-79
2022/03/26 02:23:28;;;;;;;84.20;41.70;;;;;;;2.03;100.00;100688.25;4885580;29;20049;-79
2022/03/26 02:26:15;;;;;;;81.43;38.25;;;;;;;1.98;100.00;100684.69;4858826;29;20048;-79
2022/03/26 02:29:11;;;;;;;76.85;39.45;;;;;;;1.99;100.00;100680.38;4871726;29;20057;-79
2022/03/26 02:31:55;;;;;;;72.97;37.28;;;;;;;2.05;100.00;100684.00;4871635;29;20049;-78
2022/03/26 02:34:40;;;;;;;70.28;37.08;;;;;;;2.02;100.00;100685.63;4884748;29;20045;-79
2022/03/26 02:37:24;;;;;;;76.18;37.72;;;;;;;2.03;100.00;100684.78;4871502;29;20347;-79
2022/03/26 02:40:09;;;;;;;69.47;35.85;;;;;;;2.02;100.00;100686.50;4885268;29;20045;-78
2022/03/26 02:42:53;;;;;;;75.72;39.40;;;;;;;1.95;100.00;100684.63;4885175;29;20434;-78
2022/03/26 02:45:43;;;;;;;76.47;37.10;;;;;;;1.97;100.00;100669.13;4852971;29;20400;-78
2022/03/26 02:48:27;;;;;;;78.50;38.55;;;;;;;2.01;100.00;100682.16;4866668;29;20121;-78
2022/03/26 02:51:12;;;;;;;73.85;36.85;;;;;;;2.00;100.00;100670.06;4852881;29;20355;-78
2022/03/26 02:53:56;;;;;;;74.93;35.45;;;;;;;2.00;100.00;100664.03;4866433;29;20385;-78
2022/03/26 02:56:41;;;;;;;72.72;36.45;;;;;;;2.00;100.00;100659.75;4866457;29;20042;-79
2022/03/26 02:59:25;;;;;;;73.00;36.55;;;;;;;1.97;100.00;100653.63;4866464;29;20069;-79
2022/03/26 03:02:10;;;;;;;72.72;38.55;;;;;;;1.93;100.00;100665.59;4852509;29;20057;-79
2022/03/26 03:04:54;;;;;;;83.90;39.00;;;;;;;1.90;100.00;100656.91;4866247;29;20042;-78
2022/03/26 03:07:39;;;;;;;77.97;40.15;;;;;;;1.89;100.00;100666.38;4852658;29;20541;-79
2022/03/26 03:10:24;;;;;;;84.07;40.88;;;;;;;1.83;100.00;100667.09;4865337;29;20050;-79
2022/03/26 03:13:09;;;;;;;83.95;42.67;;;;;;;1.79;100.00;100667.88;4866093;29;20061;-79
2022/03/26 03:15:53;;;;;;;90.93;44.55;;;;;;;1.93;100.00;100664.75;4866012;29;20049;-78
2022/03/26 03:18:38;;;;;;;82.57;39.92;;;;;;;1.88;100.00;100667.19;4866192;29;20045;-79
2022/03/26 03:21:23;;;;;;;88.85;42.08;;;;;;;1.89;100.00;100660.34;4866072;29;20456;-78
2022/03/26 03:24:07;;;;;;;82.45;41.03;;;;;;;1.82;100.00;100662.78;4852270;29;20052;-78
2022/03/26 03:26:51;;;;;;;77.57;40.25;;;;;;;1.91;100.00;100656.94;4850631;29;20046;-78
2022/03/26 03:29:35;;;;;;;81.82;40.55;;;;;;;1.92;100.00;100652.63;4865846;29;20376;-78
2022/03/26 03:32:20;;;;;;;79.65;38.70;;;;;;;1.87;100.00;100645.66;4852211;29;20129;-78
2022/03/26 03:35:05;;;;;;;78.43;39.83;;;;;;;1.87;100.00;100632.75;4852052;29;20049;-79
2022/03/26 03:37:49;;;;;;;84.65;41.00;;;;;;;1.91;100.00;100646.59;4865574;29;20405;-79
2022/03/26 03:40:34;;;;;;;80.75;41.60;;;;;;;1.93;100.00;100644.06;4865635;29;20114;-78
2022/03/26 03:43:18;;;;;;;74.20;38.42;;;;;;;1.95;100.00;100645.84;4867792;29;20045;-79
2022/03/26 03:46:03;;;;;;;77.65;40.42;;;;;;;1.95;100.00;100643.28;4883956;29;20351;-78
2022/03/26 03:48:47;;;;;;;77.32;38.20;;;;;;;1.93;100.00;100646.66;4870325;29;20045;-78
2022/03/26 03:51:31;;;;;;;72.38;39.17;;;;;;;1.88;100.00;100638.78;4884073;29;20045;-78
2022/03/26 03:54:16;;;;;;;80.03;39.03;;;;;;;1.94;100.00;100636.34;4883420;29;20041;-79
2022/03/26 03:57:01;;;;;;;75.68;36.92;;;;;;;1.95;100.00;100640.69;4870134;29;20045;-78
2022/03/26 03:59:45;;;;;;;69.07;37.30;;;;;;;1.91;100.00;100640.56;4883895;29;20109;-78
2022/03/26 04:02:31;;;;;;;86.22;40.38;;;;;;;1.93;100.00;100638.91;4870043;29;20455;-78
2022/03/26 04:05:15;;;;;;;70.13;37.85;;;;;;;1.93;100.00;100633.72;4870005;29;20127;-78
2022/03/26 04:08:00;;;;;;;74.13;37.45;;;;;;;1.98;100.00;100639.88;4882984;29;20049;-78
2022/03/26 04:10:44;;;;;;;70.75;36.00;;;;;;;1.99;100.00;100636.47;4870014;29;20049;-78
2022/03/26 04:13:29;;;;;;;69.70;36.05;;;;;;;1.98;100.00;100638.19;4883687;29;20057;-78
2022/03/26 04:16:13;;;;;;;71.47;35.35;;;;;;;1.98;100.00;100634.69;4856787;29;20049;-79
2022/03/26 04:18:58;;;;;;;66.63;35.42;;;;;;;1.97;100.00;100632.97;4883570;29;20045;-78
2022/03/26 04:21:43;;;;;;;68.18;34.53;;;;;;;1.91;100.00;100635.41;4869725;29;20052;-78
2022/03/26 04:24:27;;;;;;;65.88;35.05;;;;;;;1.82;100.00;100630.88;4883650;29;20403;-78
2022/03/26 04:27:11;;;;;;;68.55;36.72;;;;;;;1.79;100.00;100620.50;4856524;29;20045;-79
2022/03/26 04:29:56;;;;;;;71.05;36.90;;;;;;;1.85;100.00;100630.94;4883330;29;20068;-78
2022/03/26 04:32:41;;;;;;;66.75;34.13;;;;;;;1.81;100.00;100619.69;4869434;29;20427;-79
2022/03/26 04:35:26;;;;;;;66.20;35.67;;;;;;;1.86;100.00;100627.56;4856488;29;20363;-78
2022/03/26 04:38:10;;;;;;;65.50;33.60;;;;;;;1.86;100.00;100625.84;4882698;29;20057;-78
2022/03/26 04:40:55;;;;;;;72.13;36.58;;;;;;;1.88;100.00;100625.84;4882786;29;20045;-79
2022/03/26 04:43:40;;;;;;;72.32;35.60;;;;;;;1.91;100.00;100623.34;4855723;29;20450;-78
2022/03/26 04:46:25;;;;;;;70.45;35.45;;;;;;;1.91;100.00;100623.34;4869554;29;20109;-79
2022/03/26 04:49:09;;;;;;;68.35;35.53;;;;;;;1.94;100.00;100638.91;4869136;29;20108;-78
2022/03/26 04:51:53;;;;;;;71.63;36.25;;;;;;;2.01;100.00;100622.72;4869122;29;20049;-79
2022/03/26 04:54:38;;;;;;;65.63;34.38;;;;;;;2.01;100.00;100620.13;4883103;29;20072;-78
2022/03/26 04:57:23;;;;;;;66.40;34.95;;;;;;;2.06;100.00;100622.84;4853419;29;20057;-79
2022/03/26 05:00:12;;;;;;;69.68;35.55;;;;;;;2.02;100.00;100618.44;4882608;29;20049;-79
2022/03/26 05:02:57;;;;;;;71.03;38.75;;;;;;;2.10;100.00;100630.69;4869371;29;20040;-79
2022/03/26 05:05:41;;;;;;;76.63;37.17;;;;;;;2.15;100.00;100625.63;4882301;29;20060;-79
2022/03/26 05:08:25;;;;;;;75.38;38.40;;;;;;;2.24;100.00;100630.09;4882893;29;20115;-78
2022/03/26 05:11:09;;;;;;;75.82;38.28;;;;;;;2.27;100.00;100631.03;4883351;29;20053;-78
2022/03/26 05:13:54;;;;;;;73.93;36.63;;;;;;;2.34;100.00;100622.59;4882785;29;20052;-79
2022/03/26 05:16:38;;;;;;;73.53;39.30;;;;;;;2.53;100.00;100630.72;4869425;29;20041;-79
2022/03/26 05:19:22;;;;;;;75.65;37.08;;;;;;;2.61;100.00;100628.31;4881963;29;20045;-79
2022/03/26 05:22:07;;;;;;;81.43;38.28;;;;;;;2.75;100.00;100632.91;4882576;29;20045;-79
2022/03/26 05:24:53;;;;;;;81.55;39.05;;;;;;;2.88;100.00;100641.78;4883132;29;20049;-79
2022/03/26 05:27:38;;;;;;;74.18;36.67;;;;;;;2.98;100.00;100635.06;4868862;29;20073;-79
2022/03/26 05:30:24;;;;;;;69.68;36.17;;;;;;;3.13;100.00;100631.91;4869002;29;20045;-79
2022/03/26 05:33:08;;;;;;;61.55;32.65;;;;;;;3.30;100.00;100638.25;4882725;29;20427;-79
2022/03/26 05:35:53;;;;;;;67.50;35.97;;;;;;;3.42;100.00;100624.63;4882504;29;20045;-78
2022/03/26 05:38:37;;;;;;;69.70;35.10;;;;;;;3.68;100.00;100625.94;4882426;29;20068;-79
2022/03/26 05:41:23;;;;;;;68.57;34.95;;;;;;;4.17;100.00;100618.88;4882900;29;20052;-78
2022/03/26 05:44:08;;;;;;;74.45;37.20;;;;;;;4.71;100.00;100616.09;4881841;29;20068;-79
2022/03/26 05:46:52;;;;;;;72.68;36.97;;;;;;;5.04;100.00;100606.09;4881304;29;20072;-79
2022/03/26 05:49:37;;;;;;;63.83;34.45;;;;;;;5.58;100.00;100611.75;4880390;29;20048;-78
2022/03/26 05:52:21;;;;;;;63.28;35.00;;;;;;;5.91;100.00;100615.44;4868717;29;20055;-79
2022/03/26 05:55:06;;;;;;;58.08;32.58;;;;;;;6.21;100.00;100620.03;4868964;29;20368;-79
2022/03/26 05:57:50;;;;;;;57.15;32.92;;;;;;;6.65;100.00;100620.22;4852773;29;20057;-80
2022/03/26 06:00:34;;;;;;;59.65;31.27;;;;;;;7.10;100.00;100617.75;4868421;29;20049;-82
2022/03/26 06:03:18;;;;;;;55.35;31.23;;;;;;;7.50;100.00;100611.69;4880450;29;20056;-82
2022/03/26 06:06:03;;;;;;;49.05;28.80;;;;;;;7.72;99.81;100612.56;4879615;29;20053;-82
2022/03/26 06:08:48;;;;;;;57.08;30.13;;;;;;;8.09;98.15;100614.25;4867152;29;20101;-82
2022/03/26 06:11:32;;;;;;;56.75;31.15;;;;;;;8.43;96.64;100602.03;4867096;29;20041;-82
2022/03/26 06:14:17;;;;;;;50.08;28.90;;;;;;;8.94;94.35;100614.81;4854047;29;20052;-83
2022/03/26 06:17:02;;;;;;;50.15;28.58;;;;;;;9.42;90.45;100612.78;4866989;29;20128;-83
2022/03/26 06:19:47;;;;;;;53.13;29.95;;;;;;;9.76;86.54;100608.16;4866460;29;20431;-83
2022/03/26 06:22:32;;;;;;;47.90;29.05;;;;;;;10.19;85.43;100621.66;4866280;29;20041;-83
2022/03/26 06:25:16;;;;;;;51.38;30.30;;;;;;;10.39;82.44;100621.47;4880200;29;20105;-86
2022/03/26 06:28:00;;;;;;;54.78;29.95;;;;;;;10.91;80.67;100615.56;4866316;29;20136;-86
2022/03/26 06:30:46;;;;;;;46.42;29.30;;;;;;;11.09;78.72;100611.00;4866409;29;20068;-86
2022/03/26 06:33:31;;;;;;;48.03;29.02;;;;;;;11.84;75.29;100608.06;4880641;29;20053;-86
2022/03/26 06:36:16;;;;;;;55.05;31.58;;;;;;;12.08;72.90;100617.25;4868691;29;20052;-87
2022/03/26 06:39:02;;;;;;;47.45;28.63;;;;;;;12.38;69.78;100617.53;4881954;29;20120;-87
2022/03/26 06:41:46;;;;;;;52.35;30.38;;;;;;;12.73;69.42;100611.56;4882074;29;20037;-87
2022/03/26 06:44:31;;;;;;;48.55;29.17;;;;;;;12.79;67.45;100610.59;4881866;29;20438;-87
2022/03/26 06:47:15;;;;;;;51.22;29.50;;;;;;;13.37;67.73;100616.34;4881134;29;20333;-87
2022/03/26 06:50:00;;;;;;;47.53;29.75;;;;;;;13.72;65.19;100608.44;4881785;29;20355;-87
2022/03/26 06:52:44;;;;;;;46.92;30.20;;;;;;;13.96;64.31;100606.94;4881048;29;20049;-87
2022/03/26 06:55:29;;;;;;;44.10;29.08;;;;;;;14.35;63.62;100603.25;4881738;29;20518;-87
2022/03/26 06:58:13;;;;;;;46.33;29.52;;;;;;;13.99;63.34;100603.34;4881735;29;20045;-88
2022/03/26 07:00:58;;;;;;;42.83;27.25;;;;;;;14.61;62.16;100608.69;4883403;29;20045;-88
2022/03/26 07:03:44;;;;;;;41.95;25.73;;;;;;;15.04;60.44;100603.91;4885047;29;20049;-88
2022/03/26 07:06:28;;;;;;;40.97;25.58;;;;;;;15.40;59.53;100597.47;4884623;29;20053;-89
2022/03/26 07:09:13;;;;;;;36.40;24.83;;;;;;;15.61;58.47;100592.41;4871467;29;20045;-88
2022/03/26 07:11:57;;;;;;;40.30;25.48;;;;;;;15.71;56.03;100591.19;4871301;29;20049;-88
2022/03/26 07:14:42;;;;;;;37.08;24.13;;;;;;;16.14;57.33;100595.00;4884927;29;20404;-89
2022/03/26 07:17:27;;;;;;;45.03;27.77;;;;;;;16.57;55.58;100594.31;4885128;29;20045;-89
2022/03/26 07:20:14;;;;;;;50.92;28.95;;;;;;;16.31;55.27;100571.47;4858335;29;20045;-89
2022/03/26 07:22:58;;;;;;;39.90;24.83;;;;;;;16.56;54.12;100583.78;4885242;29;20049;-89
2022/03/26 07:25:43;;;;;;;45.60;24.38;;;;;;;16.53;50.89;100571.53;4871288;29;20041;-89
2022/03/26 07:28:28;;;;;;;43.08;25.50;;;;;;;16.18;51.64;100582.53;4871366;29;20153;-89
2022/03/26 07:31:12;;;;;;;44.25;22.85;;;;;;;15.69;51.28;100571.91;4884663;29;20106;-89
2022/03/26 07:33:56;;;;;;;41.33;22.65;;;;;;;15.61;51.27;100574.78;4885094;29;20057;-89
2022/03/26 07:36:42;;;;;;;48.67;23.83;;;;;;;15.53;51.73;100565.38;4858284;29;20432;-89
2022/03/26 07:39:27;;;;;;;39.80;22.65;;;;;;;16.35;50.34;100575.72;4871135;29;20403;-89
2022/03/26 07:42:11;;;;;;;37.30;22.35;;;;;;;16.24;50.79;100564.66;4870855;29;20037;-89
2022/03/26 07:44:56;;;;;;;39.00;20.77;;;;;;;16.31;48.81;100567.94;4870499;29;20057;-89
2022/03/26 07:47:40;;;;;;;41.03;22.42;;;;;;;16.50;48.61;100562.84;4881336;29;20041;-88
2022/03/26 07:50:25;;;;;;;36.90;21.13;;;;;;;16.78;47.99;100560.91;4883191;29;20060;-88
2022/03/26 07:53:10;;;;;;;41.13;22.05;;;;;;;16.91;47.03;100540.13;4869321;29;20045;-88
2022/03/26 07:55:54;;;;;;;39.42;22.38;;;;;;;16.97;46.37;100545.19;4884283;29;20056;-88
2022/03/26 07:58:38;;;;;;;40.80;23.40;;;;;;;16.94;46.34;100547.09;4884127;29;20049;-88
2022/03/26 08:01:23;;;;;;;37.17;22.23;;;;;;;16.76;46.34;100544.22;4884172;29;20056;-88
2022/03/26 08:04:07;;;;;;;42.53;22.40;;;;;;;17.37;45.84;100543.56;4870109;29;20049;-88
2022/03/26 08:06:51;;;;;;;43.83;23.98;;;;;;;17.74;45.44;100549.94;4883893;29;20041;-88
2022/03/26 08:09:36;;;;;;;34.30;19.70;;;;;;;18.02;43.75;100546.13;4869977;29;20396;-89
2022/03/26 08:12:20;;;;;;;36.00;20.85;;;;;;;17.97;43.10;100539.25;4881367;29;20053;-88
2022/03/26 08:15:06;;;;;;;41.65;21.10;;;;;;;17.59;43.25;100535.56;4868161;29;20495;-87
2022/03/26 08:17:50;;;;;;;34.22;18.48;;;;;;;17.70;43.03;100543.06;4868129;29;20470;-86
2022/03/26 08:20:34;;;;;;;33.08;19.10;;;;;;;17.72;43.82;100543.84;4868120;29;20044;-86
2022/03/26 08:23:18;;;;;;;29.98;18.95;;;;;;;17.77;43.15;100535.72;4881807;29;20041;-83
2022/03/26 08:29:06;;;;;;;27.55;17.55;;;;;;;18.21;41.94;100529.31;4869678;29;20045;-85
2022/03/26 08:31:51;;;;;;;32.63;18.48;;;;;;;18.04;42.06;100525.72;4869759;29;20048;-87
2022/03/26 08:34:35;;;;;;;31.17;17.10;;;;;;;17.97;41.81;100518.06;4884039;29;20045;-86
2022/03/26 08:37:20;;;;;;;35.65;19.50;;;;;;;17.96;41.10;100537.50;4882669;29;20045;-86
2022/03/26 08:40:05;;;;;;;33.05;16.08;;;;;;;17.93;40.49;100521.75;4883668;29;20056;-88
2022/03/26 08:42:49;;;;;;;30.95;16.58;;;;;;;17.74;40.89;100520.78;4870031;29;20056;-88
2022/03/26 08:45:35;;;;;;;34.47;15.00;;;;;;;17.32;40.29;100511.09;4856692;29;20056;-88
2022/03/26 08:48:19;;;;;;;37.53;14.40;;;;;;;17.83;38.94;100515.13;4869422;29;20366;-83
2022/03/26 08:51:04;;;;;;;39.85;14.85;;;;;;;17.71;38.32;100508.56;4882408;29;20359;-84
2022/03/26 08:53:49;;;;;;;60.05;14.27;;;;;;;17.52;38.33;100508.50;4856481;29;20045;-83
2022/03/26 08:56:34;;;;;;;33.35;11.75;;;;;;;17.73;38.14;100505.84;4883290;29;20069;-86
2022/03/26 08:59:18;;;;;;;18.02;9.82;;;;;;;17.45;39.01;100499.09;4869378;29;20044;-87
2022/03/26 09:02:03;;;;;;;33.38;10.85;;;;;;;17.71;39.45;100503.28;4882906;29;20049;-88
2022/03/26 09:04:48;;;;;;;49.75;10.80;;;;;;;17.69;39.93;100504.25;4856262;29;20499;-86
2022/03/26 09:07:33;;;;;;;58.63;11.18;;;;;;;17.50;41.10;100505.03;4883437;29;20049;-87
2022/03/26 09:10:17;;;;;;;18.45;9.38;;;;;;;17.33;42.19;100504.91;4869061;29;20351;-85
2022/03/26 09:13:02;;;;;;;22.73;8.82;;;;;;;17.63;42.86;100505.38;4882641;29;20124;-87
2022/03/26 09:15:46;;;;;;;21.58;10.13;;;;;;;17.77;43.72;100509.25;4883299;29;20048;-84
2022/03/26 09:18:31;;;;;;;15.85;8.55;;;;;;;17.78;45.36;100505.66;4869306;29;20051;-88
2022/03/26 09:21:15;;;;;;;15.18;8.65;;;;;;;17.90;45.55;100487.44;4868692;29;20049;-83
2022/03/26 09:24:00;;;;;;;19.02;8.48;;;;;;;17.81;46.03;100489.63;4865444;29;20125;-81
2022/03/26 09:26:46;;;;;;;17.65;8.70;;;;;;;17.73;45.81;100514.63;4852955;29;20124;-83
2022/03/26 09:29:31;;;;;;;24.67;10.05;;;;;;;17.90;46.83;100513.94;4851398;29;20055;-83
2022/03/26 09:32:17;;;;;;;21.38;9.80;;;;;;;17.73;47.74;100501.38;4871356;29;20049;-83
2022/03/26 09:35:03;;;;;;;19.02;8.43;;;;;;;18.05;46.52;100500.94;4869777;29;20049;-83
2022/03/26 09:37:48;;;;;;;36.30;11.90;;;;;;;17.78;46.31;100493.28;4870769;29;20387;-84
2022/03/26 09:40:36;;;;;;;20.10;11.40;;;;;;;17.68;47.23;100491.94;4859281;29;20116;-83
2022/03/26 09:43:28;;;;;;;20.25;11.20;;;;;;;17.96;46.20;100495.09;4857865;29;20488;-83
2022/03/26 09:46:14;;;;;;;50.42;29.30;;;;;;;17.97;46.37;100486.25;4846521;29;20038;-82
2022/03/26 09:48:59;;;;;;;32.35;21.77;;;;;;;18.10;46.25;100505.13;4870670;29;20117;-83
2022/03/26 09:51:44;;;;;;;19.33;9.60;;;;;;;17.94;45.73;100498.78;4882907;29;20076;-83
2022/03/26 09:54:30;;;;;;;24.88;15.70;;;;;;;17.97;46.09;100503.91;4872669;29;20049;-83
2022/03/26 09:57:17;;;;;;;20.02;12.70;;;;;;;18.15;45.96;100484.53;4869830;29;20045;-83
2022/03/26 10:00:02;;;;;;;27.58;11.43;;;;;;;18.24;45.07;100501.81;4857823;29;20046;-82
2022/03/26 10:02:57;;;;;;;20.02;9.80;;;;;;;18.18;45.44;100497.66;4858664;29;20050;-83
2022/03/26 10:05:42;;;;;;;20.65;10.75;;;;;;;18.07;46.07;100491.09;4870938;29;20398;-81
2022/03/26 10:08:28;;;;;;;31.58;14.18;;;;;;;18.38;45.23;100488.78;4856171;29;20408;-82
2022/03/26 10:11:21;;;;;;;26.50;11.48;;;;;;;18.44;43.11;100492.94;4858818;29;20068;-80
2022/03/26 10:14:05;;;;;;;26.35;9.18;;;;;;;18.16;42.56;100486.25;4870464;29;20118;-83
2022/03/26 10:16:51;;;;;;;15.73;9.40;;;;;;;18.04;42.51;100497.44;4872300;29;20447;-80
2022/03/26 10:19:36;;;;;;;14.15;9.05;;;;;;;18.19;43.20;100493.22;4857117;29;20053;-80
2022/03/26 10:22:41;;;;;;;18.98;9.90;;;;;;;18.37;42.09;100484.41;4871288;29;20050;-82
2022/03/26 10:25:26;;;;;;;22.73;10.40;;;;;;;18.17;42.90;100498.59;4871966;29;20104;-81
2022/03/26 10:28:22;;;;;;;11.18;7.57;;;;;;;18.43;42.00;100492.09;4871732;29;20041;-81
2022/03/26 10:34:20;;;;;;;20.77;8.57;;;;;;;18.03;42.33;100493.03;4886578;29;20060;-80
2022/03/26 10:37:04;;;;;;;22.40;8.45;;;;;;;18.06;42.88;100478.78;4874984;29;20045;-79
2022/03/26 10:39:50;;;;;;;30.70;8.63;;;;;;;18.02;42.32;100464.81;4875838;29;20353;-81
2022/03/26 10:42:35;;;;;;;21.70;8.75;;;;;;;18.15;41.68;100460.69;4875831;29;20116;-82
2022/03/26 10:45:20;;;;;;;10.63;5.97;;;;;;;18.49;41.51;100459.13;4848587;29;20061;-81
2022/03/26 10:48:09;;;;;;;12.20;6.95;;;;;;;18.48;40.45;100467.13;4883729;29;20462;-82
2022/03/26 10:50:59;;;;;;;15.32;8.00;;;;;;;18.26;41.87;100462.81;4884492;29;20367;-82
2022/03/26 10:53:49;;;;;;;19.73;6.15;;;;;;;18.03;41.64;100453.28;4884724;29;20435;-81
2022/03/26 10:56:37;;;;;;;12.07;7.35;;;;;;;17.95;41.95;100455.44;4885079;29;20041;-80
2022/03/26 10:59:22;;;;;;;18.00;7.97;;;;;;;18.25;42.22;100454.97;4884974;29;20419;-82
2022/03/26 11:02:08;;;;;;;16.70;7.20;;;;;;;18.53;40.88;100458.03;4884331;29;20045;-82
2022/03/26 11:04:52;;;;;;;12.18;6.90;;;;;;;18.91;41.26;100458.88;4858521;29;20045;-82
2022/03/26 11:07:37;;;;;;;9.35;6.63;;;;;;;18.81;39.43;100465.53;4884736;29;20045;-82
2022/03/26 11:10:24;;;;;;;11.63;7.57;;;;;;;18.86;40.13;100452.06;4884975;29;20079;-82
2022/03/26 11:13:11;;;;;;;20.13;6.15;;;;;;;18.67;39.29;100447.59;4871153;29;20105;-83
2022/03/26 11:16:03;;;;;;;17.17;6.30;;;;;;;18.62;38.93;100441.69;4885182;29;20132;-83
2022/03/26 11:18:56;;;;;;;12.70;7.28;;;;;;;19.08;39.60;100436.78;4885390;29;20059;-83
2022/03/26 11:21:55;;;;;;;13.48;6.45;;;;;;;18.73;39.53;100430.56;4884249;29;20068;-83
2022/03/26 11:25:17;;;;;;;18.67;6.80;;;;;;;18.51;40.28;100438.66;4881333;29;20049;-83
2022/03/26 11:28:20;;;;;;;14.63;6.40;;;;;;;18.55;40.66;100434.94;4878853;29;20049;-83
2022/03/26 11:31:12;;;;;;;12.35;6.20;;;;;;;19.24;39.40;100430.69;4873220;29;20363;-83
2022/03/26 11:34:05;;;;;;;11.85;8.23;;;;;;;19.35;38.91;100417.72;4873582;29;20362;-82
2022/03/26 11:36:51;;;;;;;18.95;6.35;;;;;;;19.85;37.86;100430.16;4873808;29;20050;-82
2022/03/26 11:39:46;;;;;;;12.70;5.30;;;;;;;19.74;38.17;100433.41;4870242;29;20447;-83
2022/03/26 11:42:31;;;;;;;9.85;5.70;;;;;;;19.70;38.87;100421.22;4874182;29;20041;-84
2022/03/26 11:51:56;;;;;;;8.07;4.88;;;;;;;18.86;39.88;100402.50;4874873;29;20048;-84
2022/03/26 11:54:43;;;;;;;11.50;5.25;;;;;;;18.56;40.62;100402.19;4874542;29;20050;-84
2022/03/26 11:57:29;;;;;;;9.70;5.10;;;;;;;18.65;41.50;100406.16;4875056;29;20049;-84
2022/03/26 12:00:17;;;;;;;10.40;5.57;;;;;;;18.61;41.23;100402.81;4872995;29;20045;-85
2022/03/26 12:03:02;;;;;;;8.60;4.72;;;;;;;18.28;41.56;100396.50;4874991;29;20124;-87
2022/03/26 12:08:52;;;;;;;23.33;6.35;;;;;;;18.29;41.54;100398.19;4872923;29;20125;-82
2022/03/26 12:11:58;;;;;;;17.33;5.47;;;;;;;18.07;41.91;100385.09;4847938;29;20045;-81
2022/03/26 12:15:01;;;;;;;8.32;4.22;;;;;;;18.22;41.66;100394.97;4874316;29;20115;-81
2022/03/26 12:17:48;;;;;;;;;;;;;;;18.09;42.15;100392.03;4871909;29;20097;-83
2022/03/26 12:20:40;;;;;;;12.15;4.60;;;;;;;18.09;42.77;100386.75;4872609;29;20031;-82
2022/03/26 12:23:34;;;;;;;11.00;5.13;;;;;;;18.05;42.92;100355.16;4878743;29;20435;-80
2022/03/26 12:26:21;;;;;;;8.98;4.38;;;;;;;18.17;43.34;100383.75;4862612;29;20056;-80
2022/03/26 12:29:07;;;;;;;12.68;5.40;;;;;;;18.19;43.27;100392.47;4862513;29;20041;-80
2022/03/26 12:31:53;;;;;;;22.90;5.70;;;;;;;18.08;42.95;100384.19;4859629;29;20053;-79
2022/03/26 12:35:02;;;;;;;6.68;4.47;;;;;;;17.77;43.37;100384.72;4873882;29;20439;-80
2022/03/26 12:37:50;;;;;;;11.15;4.40;;;;;;;17.58;43.97;100388.19;4860307;29;20355;-80
2022/03/26 12:40:38;;;;;;;7.25;4.60;;;;;;;17.63;44.25;100385.31;4849803;29;20041;-87
2022/03/26 12:43:24;;;;;;;9.73;4.68;;;;;;;17.45;45.09;100398.47;4849000;29;20045;-87
2022/03/26 12:46:10;;;;;;;11.70;5.32;;;;;;;17.37;45.40;100402.38;4872287;29;20503;-90
2022/03/26 12:48:55;;;;;;;7.35;5.07;;;;;;;17.64;45.36;100385.25;4883128;29;20052;-85
2022/03/26 12:51:40;;;;;;;15.18;6.07;;;;;;;17.68;44.89;100397.44;4869400;29;20400;-84